createdAt,value
2019-03-23T00:02:11.157Z,99.90
2019-03-23T00:04:39.846Z,99.90
2019-03-23T00:07:08.126Z,99.90
2019-03-23T00:09:36.677Z,99.90
2019-03-23T00:12:05.305Z,99.90
2019-03-23T00:14:33.733Z,99.90
2019-03-23T00:17:02.174Z,99.90
2019-03-23T00:19:30.789Z,99.90
2019-03-23T00:21:59.290Z,99.90
2019-03-23T00:24:27.760Z,99.90
2019-03-23T00:26:56.329Z,99.90
2019-03-23T00:29:24.809Z,99.90
2019-03-23T00:31:53.221Z,99.90
2019-03-23T00:34:21.582Z,99.90
2019-03-23T00:36:49.877Z,99.90
2019-03-23T00:39:18.257Z,99.90
2019-03-23T00:41:46.778Z,99.90
2019-03-23T00:44:15.138Z,99.90
2019-03-23T00:46:43.641Z,99.90
2019-03-23T00:49:12.082Z,99.90
2019-03-23T00:51:40.493Z,99.90
2019-03-23T00:54:08.785Z,99.90
2019-03-23T00:56:37.266Z,99.90
2019-03-23T00:59:05.739Z,99.90
2019-03-23T01:01:34.337Z,99.90
2019-03-23T01:04:03.205Z,99.90
2019-03-23T01:06:31.711Z,99.90
2019-03-23T01:09:00.081Z,99.90
2019-03-23T01:11:28.405Z,99.90
2019-03-23T01:13:56.749Z,99.90
2019-03-23T01:16:25.252Z,99.90
2019-03-23T01:18:53.613Z,99.90
2019-03-23T01:21:22.025Z,99.90
2019-03-23T01:23:50.489Z,99.90
2019-03-23T01:26:18.766Z,99.90
2019-03-23T01:28:47.259Z,99.90
2019-03-23T01:31:15.889Z,99.90
2019-03-23T01:33:44.320Z,99.90
2019-03-23T01:36:12.833Z,99.90
2019-03-23T01:38:41.205Z,99.90
2019-03-23T01:41:09.715Z,99.90
2019-03-23T01:43:38.174Z,99.90
2019-03-23T01:46:06.661Z,99.90
2019-03-23T01:48:35.065Z,99.90
2019-03-23T01:51:03.405Z,99.90
2019-03-23T01:53:31.825Z,99.90
2019-03-23T01:56:00.206Z,99.90
2019-03-23T01:58:28.474Z,99.90
2019-03-23T02:00:56.873Z,99.90
2019-03-23T02:03:25.197Z,99.90
2019-03-23T02:05:53.830Z,99.90
2019-03-23T02:08:22.141Z,99.90
2019-03-23T02:10:50.497Z,99.90
2019-03-23T02:13:19.011Z,99.90
2019-03-23T02:15:47.365Z,99.90
2019-03-23T02:18:15.674Z,99.90
2019-03-23T02:20:44.070Z,99.90
2019-03-23T02:23:12.432Z,99.90
2019-03-23T02:25:40.730Z,99.90
2019-03-23T02:28:09.213Z,99.90
2019-03-23T02:30:37.783Z,99.90
2019-03-23T02:33:06.290Z,99.90
2019-03-23T02:35:34.663Z,99.90
2019-03-23T02:38:02.919Z,99.90
2019-03-23T02:40:31.161Z,99.90
2019-03-23T02:42:59.439Z,99.90
2019-03-23T02:45:30.181Z,99.90
2019-03-23T02:47:57.917Z,99.90
2019-03-23T02:50:26.289Z,99.90
2019-03-23T02:52:54.686Z,99.90
2019-03-23T02:55:23.166Z,99.90
2019-03-23T02:57:51.662Z,99.90
2019-03-23T03:00:20.039Z,99.90
2019-03-23T03:02:48.709Z,99.90
2019-03-23T03:05:17.228Z,99.90
2019-03-23T03:07:45.685Z,99.90
2019-03-23T03:10:24.529Z,99.90
2019-03-23T03:12:52.894Z,99.90
2019-03-23T03:15:21.309Z,99.90
2019-03-23T03:17:49.870Z,99.90
2019-03-23T03:20:18.378Z,99.90
2019-03-23T03:22:46.872Z,99.90
2019-03-23T03:25:15.549Z,99.90
2019-03-23T03:27:43.931Z,99.90
2019-03-23T03:30:12.284Z,99.90
2019-03-23T03:32:40.710Z,99.90
2019-03-23T03:35:09.090Z,99.90
2019-03-23T03:37:37.442Z,99.90
2019-03-23T03:40:06.059Z,99.90
2019-03-23T03:42:34.432Z,99.90
2019-03-23T03:45:03.230Z,99.90
2019-03-23T03:47:31.589Z,99.90
2019-03-23T03:50:00.000Z,99.90
2019-03-23T03:52:28.372Z,99.90
2019-03-23T03:54:56.802Z,99.90
2019-03-23T03:57:25.237Z,99.90
2019-03-23T03:59:53.782Z,99.90
2019-03-23T04:02:22.129Z,99.90
2019-03-23T04:04:50.665Z,99.90
2019-03-23T04:07:18.890Z,99.90
2019-03-23T04:09:47.495Z,99.90
2019-03-23T04:12:15.954Z,99.90
2019-03-23T04:14:44.364Z,99.90
2019-03-23T04:17:12.819Z,99.90
2019-03-23T04:19:41.203Z,99.90
2019-03-23T04:22:09.606Z,99.90
2019-03-23T04:24:37.982Z,99.90
2019-03-23T04:27:06.589Z,99.90
2019-03-23T04:29:34.971Z,99.90
2019-03-23T04:32:03.458Z,99.90
2019-03-23T04:34:32.015Z,99.90
2019-03-23T04:37:00.378Z,99.90
2019-03-23T04:39:28.802Z,99.90
2019-03-23T04:41:57.174Z,99.90
2019-03-23T04:44:25.654Z,99.90
2019-03-23T04:46:54.061Z,99.90
2019-03-23T04:49:22.434Z,99.90
2019-03-23T04:51:50.829Z,99.90
2019-03-23T04:54:19.300Z,99.90
2019-03-23T04:56:47.696Z,99.90
2019-03-23T04:59:16.058Z,99.90
2019-03-23T05:01:44.632Z,99.90
2019-03-23T05:04:12.988Z,99.90
2019-03-23T05:06:42.619Z,99.90
2019-03-23T05:09:11.135Z,99.90
2019-03-23T05:11:39.544Z,99.90
2019-03-23T05:14:08.022Z,99.90
2019-03-23T05:16:36.416Z,99.90
2019-03-23T05:19:04.877Z,99.90
2019-03-23T05:21:33.208Z,99.90
2019-03-23T05:24:01.644Z,99.90
2019-03-23T05:26:30.255Z,99.90
2019-03-23T05:28:58.608Z,99.90
2019-03-23T05:31:27.127Z,99.90
2019-03-23T05:33:55.404Z,99.90
2019-03-23T05:36:23.765Z,99.90
2019-03-23T05:38:52.279Z,99.90
2019-03-23T05:41:20.734Z,99.90
2019-03-23T05:43:49.250Z,99.90
2019-03-23T05:46:17.720Z,99.90
2019-03-23T05:48:46.132Z,99.90
2019-03-23T05:51:14.581Z,99.90
2019-03-23T05:53:42.912Z,99.90
2019-03-23T05:56:11.369Z,99.90
2019-03-23T05:58:39.665Z,99.90
2019-03-23T06:01:08.037Z,99.90
2019-03-23T06:03:36.519Z,99.90
2019-03-23T06:06:04.901Z,99.90
2019-03-23T06:08:33.434Z,99.90
2019-03-23T06:11:01.862Z,99.90
2019-03-23T06:13:30.365Z,99.90
2019-03-23T06:15:58.753Z,99.90
2019-03-23T06:18:27.233Z,99.90
2019-03-23T06:20:55.605Z,99.90
2019-03-23T06:23:23.916Z,99.90
2019-03-23T06:25:52.369Z,99.90
2019-03-23T06:28:20.985Z,98.30
2019-03-23T06:30:49.446Z,96.50
2019-03-23T06:33:17.846Z,94.60
2019-03-23T06:35:46.107Z,93.10
2019-03-23T06:38:16.282Z,91.50
2019-03-23T06:40:44.813Z,89.10
2019-03-23T06:43:13.159Z,84.20
2019-03-23T06:45:41.693Z,79.60
2019-03-23T06:48:10.013Z,76.10
2019-03-23T06:50:38.574Z,75.00
2019-03-23T06:53:07.047Z,76.10
2019-03-23T06:55:35.461Z,78.00
2019-03-23T06:58:03.925Z,80.00
2019-03-23T07:00:32.588Z,80.40
2019-03-23T07:03:01.018Z,81.60
2019-03-23T07:05:29.711Z,85.70
2019-03-23T07:07:58.069Z,88.80
2019-03-23T07:10:26.477Z,90.70
2019-03-23T07:12:54.941Z,92.20
2019-03-23T07:15:23.205Z,93.90
2019-03-23T07:17:51.599Z,95.40
2019-03-23T07:20:19.925Z,96.70
2019-03-23T07:22:51.416Z,97.90
2019-03-23T07:25:19.721Z,98.70
2019-03-23T07:27:47.983Z,99.20
2019-03-23T07:30:16.986Z,99.60
2019-03-23T07:32:45.238Z,99.90
2019-03-23T07:35:16.887Z,99.90
2019-03-23T07:37:46.137Z,99.90
2019-03-23T07:40:14.405Z,99.90
2019-03-23T07:42:42.663Z,99.90
2019-03-23T07:45:11.035Z,99.90
2019-03-23T07:47:39.579Z,99.90
2019-03-23T07:50:07.893Z,99.90
2019-03-23T07:52:36.208Z,99.90
2019-03-23T07:55:11.913Z,99.90
2019-03-23T07:57:40.162Z,99.90
2019-03-23T08:00:08.873Z,99.90
2019-03-23T08:02:37.125Z,99.90
2019-03-23T08:05:05.629Z,99.90
2019-03-23T08:07:33.878Z,99.90
2019-03-23T08:10:02.316Z,99.90
2019-03-23T08:12:30.525Z,99.90
2019-03-23T08:14:58.793Z,99.90
2019-03-23T08:17:27.046Z,99.90
2019-03-23T08:19:55.627Z,99.90
2019-03-23T08:22:23.951Z,99.90
2019-03-23T08:24:52.213Z,99.90
2019-03-23T08:27:20.491Z,99.90
2019-03-23T08:29:48.744Z,99.90
2019-03-23T08:32:17.064Z,99.90
2019-03-23T08:34:45.509Z,99.90
2019-03-23T08:37:13.939Z,99.90
2019-03-23T08:39:48.555Z,99.60
2019-03-23T08:42:12.368Z,99.40
2019-03-23T08:44:40.617Z,99.40
2019-03-23T08:47:09.207Z,99.30
2019-03-23T08:49:37.569Z,99.10
2019-03-23T08:52:06.834Z,98.80
2019-03-23T08:54:35.084Z,98.50
2019-03-23T08:57:04.538Z,98.30
2019-03-23T08:59:32.791Z,98.30
2019-03-23T09:02:01.271Z,98.00
2019-03-23T09:04:29.513Z,97.80
2019-03-23T09:06:58.152Z,97.90
2019-03-23T09:09:26.387Z,97.90
2019-03-23T09:11:54.705Z,97.40
2019-03-23T09:14:23.550Z,97.20
2019-03-23T09:16:52.032Z,96.60
2019-03-23T09:19:20.321Z,96.50
2019-03-23T09:21:50.321Z,96.10
2019-03-23T09:24:18.545Z,96.10
2019-03-23T09:26:46.949Z,95.90
2019-03-23T09:29:15.284Z,95.70
2019-03-23T09:31:44.577Z,95.40
2019-03-23T09:34:12.975Z,95.20
2019-03-23T09:36:41.444Z,95.20
2019-03-23T09:39:09.970Z,95.30
2019-03-23T09:41:38.303Z,95.10
2019-03-23T09:44:07.661Z,95.20
2019-03-23T09:46:35.965Z,95.20
2019-03-23T09:49:04.240Z,95.40
2019-03-23T09:51:32.489Z,95.30
2019-03-23T09:54:00.745Z,94.80
2019-03-23T09:56:29.005Z,94.20
2019-03-23T09:58:57.302Z,94.30
2019-03-23T10:01:25.539Z,94.10
2019-03-23T10:03:53.801Z,93.50
2019-03-23T10:06:22.157Z,93.30
2019-03-23T10:08:50.445Z,93.50
2019-03-23T10:11:18.697Z,93.40
2019-03-23T10:13:46.986Z,93.10
2019-03-23T10:16:15.361Z,93.00
2019-03-23T10:18:43.698Z,92.80
2019-03-23T10:21:11.881Z,92.70
2019-03-23T10:23:40.158Z,92.80
2019-03-23T10:26:08.447Z,92.10
2019-03-23T10:28:36.749Z,92.20
2019-03-23T10:31:05.303Z,92.60
2019-03-23T10:33:33.566Z,93.10
2019-03-23T10:36:01.856Z,92.60
2019-03-23T10:38:30.125Z,92.60
2019-03-23T10:40:58.443Z,92.00
2019-03-23T10:43:26.845Z,92.00
2019-03-23T10:45:55.413Z,91.60
2019-03-23T10:48:24.621Z,91.80
2019-03-23T10:50:52.865Z,91.50
2019-03-23T10:53:23.274Z,91.30
2019-03-23T10:55:51.437Z,90.80
2019-03-23T10:58:19.877Z,91.60
2019-03-23T11:00:48.291Z,90.70
2019-03-23T11:03:16.782Z,88.60
2019-03-23T11:05:45.497Z,90.00
2019-03-23T11:08:13.935Z,90.50
2019-03-23T11:10:42.370Z,90.30
2019-03-23T11:13:12.257Z,83.50
2019-03-23T11:15:40.772Z,77.70
2019-03-23T11:18:09.264Z,79.70
2019-03-23T11:20:37.718Z,77.90
2019-03-23T11:23:06.326Z,78.70
2019-03-23T11:25:35.001Z,77.60
2019-03-23T11:28:03.674Z,77.90
2019-03-23T11:30:32.252Z,76.40
2019-03-23T11:33:00.533Z,77.30
2019-03-23T11:35:28.856Z,76.20
2019-03-23T11:37:57.275Z,74.90
2019-03-23T11:40:25.763Z,77.30
2019-03-23T11:42:54.035Z,75.40
2019-03-23T11:45:22.313Z,73.60
2019-03-23T11:47:50.633Z,73.50
2019-03-23T11:50:18.969Z,75.80
2019-03-23T11:52:47.377Z,76.70
2019-03-23T11:55:15.821Z,76.70
2019-03-23T11:57:44.484Z,72.60
2019-03-23T12:00:13.176Z,72.50
2019-03-23T12:02:41.661Z,72.20
2019-03-23T12:05:10.084Z,71.00
2019-03-23T12:07:38.667Z,71.20
2019-03-23T12:10:07.881Z,72.40
2019-03-23T12:12:36.270Z,72.40
2019-03-23T12:15:05.347Z,71.30
2019-03-23T12:17:33.952Z,70.60
2019-03-23T12:20:02.323Z,69.80
2019-03-23T12:22:30.729Z,69.80
2019-03-23T12:24:59.108Z,69.00
2019-03-23T12:27:27.793Z,67.90
2019-03-23T12:30:06.579Z,68.20
2019-03-23T12:32:26.478Z,69.50
2019-03-23T12:34:54.947Z,69.80
2019-03-23T12:37:23.242Z,66.40
2019-03-23T12:39:51.616Z,65.30
2019-03-23T12:42:20.117Z,66.50
2019-03-23T12:44:48.481Z,64.80
2019-03-23T12:47:17.000Z,65.20
2019-03-23T12:49:45.476Z,64.10
2019-03-23T12:52:13.755Z,63.80
2019-03-23T12:54:42.235Z,65.80
2019-03-23T12:57:10.632Z,66.40
2019-03-23T12:59:38.993Z,67.30
2019-03-23T13:02:07.413Z,67.60
2019-03-23T13:04:35.954Z,67.80
2019-03-23T13:07:04.405Z,67.80
2019-03-23T13:09:32.741Z,67.80
2019-03-23T13:12:01.136Z,67.70
2019-03-23T13:14:29.456Z,66.70
2019-03-23T13:16:58.365Z,65.80
2019-03-23T13:19:26.620Z,63.20
2019-03-23T13:21:54.981Z,64.20
2019-03-23T13:24:23.254Z,66.10
2019-03-23T13:26:51.541Z,67.90
2019-03-23T13:29:20.031Z,68.40
2019-03-23T13:31:48.601Z,68.40
2019-03-23T13:34:16.913Z,67.90
2019-03-23T13:36:45.365Z,66.60
2019-03-23T13:39:13.769Z,67.60
2019-03-23T13:41:48.986Z,66.40
2019-03-23T13:44:17.257Z,66.80
2019-03-23T13:46:45.513Z,66.00
2019-03-23T13:49:13.953Z,65.20
2019-03-23T13:51:42.520Z,64.70
2019-03-23T13:54:10.803Z,65.30
2019-03-23T13:56:39.044Z,66.10
2019-03-23T13:59:07.317Z,66.20
2019-03-23T14:01:35.957Z,65.90
2019-03-23T14:04:04.360Z,64.80
2019-03-23T14:06:32.613Z,65.80
2019-03-23T14:09:00.885Z,66.40
2019-03-23T14:11:29.129Z,65.70
2019-03-23T14:22:25.129Z,63.50
2019-03-23T14:24:53.515Z,64.50
2019-03-23T14:27:21.750Z,65.30
2019-03-23T14:29:50.022Z,64.90
2019-03-23T14:32:18.377Z,64.60
2019-03-23T14:34:46.893Z,63.40
2019-03-23T14:37:15.460Z,61.70
2019-03-23T14:39:43.756Z,61.70
2019-03-23T14:42:12.320Z,61.30
2019-03-23T14:44:40.740Z,60.80
2019-03-23T14:47:09.193Z,60.50
2019-03-23T14:49:37.809Z,60.10
2019-03-23T14:52:06.559Z,60.70
2019-03-23T14:54:35.085Z,59.90
2019-03-23T14:57:03.549Z,59.70
2019-03-23T14:59:31.924Z,58.70
2019-03-23T15:02:00.175Z,59.50
2019-03-23T15:04:28.617Z,60.00
2019-03-23T15:06:56.894Z,59.70
2019-03-23T15:09:25.611Z,60.30
2019-03-23T15:11:53.865Z,60.00
2019-03-23T15:14:22.487Z,60.60
2019-03-23T15:16:50.741Z,61.30
2019-03-23T15:19:18.986Z,59.80
2019-03-23T15:21:47.422Z,60.30
2019-03-23T15:24:15.868Z,59.40
2019-03-23T15:26:44.469Z,58.40
2019-03-23T15:29:12.950Z,59.00
2019-03-23T15:31:41.373Z,58.90
2019-03-23T15:34:09.820Z,58.70
2019-03-23T15:36:38.214Z,58.10
2019-03-23T15:39:07.126Z,57.70
2019-03-23T15:41:35.600Z,57.60
2019-03-23T15:44:04.277Z,57.30
2019-03-23T15:46:32.682Z,57.30
2019-03-23T15:49:01.150Z,56.80
2019-03-23T15:51:29.506Z,56.20
2019-03-23T15:53:57.765Z,56.20
2019-03-23T15:56:26.060Z,56.20
2019-03-23T15:58:54.478Z,56.00
2019-03-23T16:01:23.343Z,55.20
2019-03-23T16:03:51.753Z,55.30
2019-03-23T16:06:20.613Z,55.40
2019-03-23T16:08:48.962Z,55.00
2019-03-23T16:11:17.640Z,54.90
2019-03-23T16:13:45.932Z,54.90
2019-03-23T16:16:14.409Z,55.10
2019-03-23T16:18:42.787Z,55.50
2019-03-23T16:21:11.279Z,55.40
2019-03-23T16:23:39.649Z,54.60
2019-03-23T16:26:08.143Z,55.00
2019-03-23T16:28:36.517Z,54.90
2019-03-23T16:31:05.084Z,54.50
2019-03-23T16:33:33.620Z,54.30
2019-03-23T16:36:03.620Z,53.90
2019-03-23T16:38:32.118Z,53.80
2019-03-23T16:41:00.489Z,53.90
2019-03-23T16:43:28.808Z,54.00
2019-03-23T16:45:57.392Z,55.00
2019-03-23T16:48:25.873Z,54.00
2019-03-23T16:50:54.323Z,54.20
2019-03-23T16:53:22.953Z,54.20
2019-03-23T16:55:51.402Z,54.30
2019-03-23T16:58:19.889Z,54.30
2019-03-23T17:00:48.517Z,53.80
2019-03-23T17:03:16.973Z,53.10
2019-03-23T17:05:45.382Z,51.70
2019-03-23T17:08:13.969Z,52.40
2019-03-23T17:10:42.232Z,52.40
2019-03-23T17:13:10.520Z,52.80
2019-03-23T17:15:38.773Z,52.70
2019-03-23T17:18:07.044Z,52.20
2019-03-23T17:20:35.454Z,52.10
2019-03-23T17:23:03.945Z,52.80
2019-03-23T17:25:32.854Z,53.80
2019-03-23T17:28:01.442Z,54.10
2019-03-23T17:30:29.920Z,54.30
2019-03-23T17:32:58.288Z,54.90
2019-03-23T17:35:26.614Z,55.60
2019-03-23T17:37:54.893Z,56.00
2019-03-23T17:40:23.347Z,56.60
2019-03-23T17:42:51.737Z,57.30
2019-03-23T17:45:20.116Z,57.70
2019-03-23T17:47:48.370Z,58.20
2019-03-23T17:50:16.660Z,58.70
2019-03-23T17:52:45.509Z,59.20
2019-03-23T17:55:13.887Z,60.00
2019-03-23T17:57:42.152Z,60.50
2019-03-23T18:00:10.446Z,61.20
2019-03-23T18:02:45.377Z,62.50
2019-03-23T18:05:13.977Z,63.50
2019-03-23T18:07:42.279Z,65.30
2019-03-23T18:10:10.554Z,65.30
2019-03-23T18:12:38.805Z,66.60
2019-03-23T18:15:07.429Z,67.10
2019-03-23T18:17:35.926Z,67.00
2019-03-23T18:20:04.590Z,67.60
2019-03-23T18:22:33.122Z,68.30
2019-03-23T18:25:01.530Z,69.10
2019-03-23T18:27:29.893Z,70.60
2019-03-23T18:29:58.315Z,70.20
2019-03-23T18:32:26.869Z,70.70
2019-03-23T18:34:55.265Z,71.20
2019-03-23T18:37:23.633Z,71.60
2019-03-23T18:39:52.143Z,72.00
2019-03-23T18:42:20.417Z,72.30
2019-03-23T18:44:48.809Z,72.50
2019-03-23T18:47:17.053Z,73.00
2019-03-23T18:49:45.335Z,73.10
2019-03-23T18:52:13.641Z,73.40
2019-03-23T18:54:42.041Z,73.50
2019-03-23T18:57:10.433Z,73.80
2019-03-23T18:59:38.915Z,73.90
2019-03-23T19:02:07.474Z,73.90
2019-03-23T19:04:35.779Z,74.40
2019-03-23T19:07:04.159Z,74.50
2019-03-23T19:09:32.439Z,74.90
2019-03-23T19:12:01.041Z,75.20
2019-03-23T19:14:29.497Z,75.50
2019-03-23T19:16:57.905Z,75.60
2019-03-23T19:19:26.261Z,75.90
2019-03-23T19:21:54.669Z,76.80
2019-03-23T19:24:23.137Z,77.70
2019-03-23T19:26:51.441Z,77.90
2019-03-23T19:29:19.699Z,78.40
2019-03-23T19:31:48.102Z,78.80
2019-03-23T19:34:16.469Z,79.10
2019-03-23T19:36:44.882Z,80.40
2019-03-23T19:39:13.441Z,81.90
2019-03-23T19:41:41.715Z,83.10
2019-03-23T19:44:10.022Z,83.90
2019-03-23T19:46:38.507Z,84.80
2019-03-23T19:49:06.887Z,85.80
2019-03-23T19:51:35.281Z,87.30
2019-03-23T19:54:03.845Z,88.70
2019-03-23T19:56:32.389Z,89.40
2019-03-23T19:59:01.030Z,90.10
2019-03-23T20:01:29.552Z,90.40
2019-03-23T20:03:58.097Z,90.90
2019-03-23T20:06:26.431Z,91.30
2019-03-23T20:08:55.077Z,91.70
2019-03-23T20:11:23.516Z,91.70
2019-03-23T20:13:58.646Z,92.00
2019-03-23T20:16:22.200Z,92.30
2019-03-23T20:18:50.450Z,93.00
2019-03-23T20:21:18.684Z,93.40
2019-03-23T20:23:46.968Z,94.00
2019-03-23T20:26:15.506Z,94.70
2019-03-23T20:28:43.905Z,95.50
2019-03-23T20:31:12.297Z,96.00
2019-03-23T20:33:40.685Z,96.60
2019-03-23T20:36:09.349Z,96.90
2019-03-23T20:38:37.967Z,97.30
2019-03-23T20:41:06.217Z,97.40
2019-03-23T20:43:34.505Z,97.60
2019-03-23T20:46:02.813Z,97.50
2019-03-23T20:48:31.081Z,97.60
2019-03-23T20:50:59.457Z,97.80
2019-03-23T20:53:28.037Z,98.00
2019-03-23T20:55:56.452Z,98.50
2019-03-23T20:58:24.909Z,98.30
2019-03-23T21:00:53.206Z,98.40
2019-03-23T21:03:21.478Z,98.60
2019-03-23T21:05:50.109Z,98.80
2019-03-23T21:08:18.560Z,99.00
2019-03-23T21:10:46.829Z,99.20
2019-03-23T21:13:15.117Z,99.30
2019-03-23T21:15:43.575Z,99.40
2019-03-23T21:18:11.993Z,99.50
2019-03-23T21:20:40.368Z,99.60
2019-03-23T21:23:08.865Z,99.70
2019-03-23T21:25:37.618Z,99.90
2019-03-23T21:28:05.900Z,99.90
2019-03-23T21:30:34.409Z,99.90
2019-03-23T21:33:02.925Z,99.90
2019-03-23T21:35:31.585Z,99.90
2019-03-23T21:37:59.876Z,99.90
2019-03-23T21:40:28.133Z,99.90
2019-03-23T21:42:56.641Z,99.90
2019-03-23T21:45:25.048Z,99.90
2019-03-23T21:47:53.317Z,99.90
2019-03-23T21:50:21.633Z,99.90
2019-03-23T21:52:50.190Z,99.90
2019-03-23T21:55:18.685Z,99.90
2019-03-23T21:57:46.945Z,99.90
2019-03-23T22:00:31.516Z,99.90
2019-03-23T22:02:59.981Z,99.90
2019-03-23T22:05:28.294Z,99.90
2019-03-23T22:07:56.748Z,99.90
2019-03-23T22:10:25.172Z,99.90
2019-03-23T22:12:53.727Z,99.90
2019-03-23T22:15:22.116Z,99.90
2019-03-23T22:17:50.512Z,99.90
2019-03-23T22:20:19.094Z,99.90
2019-03-23T22:22:47.353Z,99.90
2019-03-23T22:25:15.761Z,99.90
2019-03-23T22:27:44.445Z,99.90
2019-03-23T22:30:14.778Z,99.90
2019-03-23T22:32:43.249Z,99.90
2019-03-23T22:35:11.634Z,99.90
2019-03-23T22:37:40.136Z,99.90
2019-03-23T22:40:08.830Z,99.90
2019-03-23T22:42:37.290Z,99.90
2019-03-23T22:45:06.287Z,99.90
2019-03-23T22:47:34.889Z,99.90
2019-03-23T22:50:03.343Z,99.90
2019-03-23T22:52:31.764Z,99.90
2019-03-23T22:55:00.184Z,99.90
2019-03-23T22:57:28.739Z,99.90
2019-03-23T22:59:57.002Z,99.90
2019-03-23T23:02:25.310Z,99.90
2019-03-23T23:04:53.685Z,99.90
2019-03-23T23:07:22.389Z,99.90
2019-03-23T23:09:50.746Z,99.90
2019-03-23T23:12:19.249Z,99.90
2019-03-23T23:14:47.725Z,99.90
2019-03-23T23:17:16.137Z,99.90
2019-03-23T23:19:44.713Z,99.90
2019-03-23T23:22:13.097Z,99.90
2019-03-23T23:24:41.357Z,99.90
2019-03-23T23:27:09.647Z,99.90
2019-03-23T23:29:37.905Z,99.90
2019-03-23T23:32:06.197Z,99.90
2019-03-23T23:34:34.504Z,99.90
2019-03-23T23:37:02.786Z,99.90
2019-03-23T23:39:31.036Z,99.90
2019-03-23T23:41:59.330Z,99.90
2019-03-23T23:44:27.593Z,99.90
2019-03-23T23:46:55.870Z,99.90
2019-03-23T23:49:24.112Z,99.90
2019-03-23T23:51:52.376Z,99.90
2019-03-23T23:54:20.738Z,99.90
2019-03-23T23:56:49.149Z,99.90
2019-03-23T23:59:17.501Z,99.90
